sensor_id;sensor_type;location;lat;lon;timestamp;pressure;altitude;pressure_sealevel;temperature;humidity
52625;BME280;38519;52.540;13.410;2022-08-02T00:01:22;101119.25;;;18.57;81.21
52625;BME280;38519;52.540;13.410;2022-08-02T00:03:48;101122.69;;;18.54;80.92
52625;BME280;38519;52.540;13.410;2022-08-02T00:06:13;101127.25;;;18.59;80.65
52625;BME280;38519;52.540;13.410;2022-08-02T00:08:38;101126.59;;;18.82;78.77
52625;BME280;38519;52.540;13.410;2022-08-02T00:11:04;101128.31;;;19.00;77.77
52625;BME280;38519;52.540;13.410;2022-08-02T00:13:29;101129.63;;;19.09;76.94
52625;BME280;38519;52.540;13.410;2022-08-02T00:15:54;101131.22;;;19.06;77.42
52625;BME280;38519;52.540;13.410;2022-08-02T00:18:20;101131.09;;;19.03;77.63
52625;BME280;38519;52.540;13.410;2022-08-02T00:20:45;101134.84;;;19.08;76.59
52625;BME280;38519;52.540;13.410;2022-08-02T00:23:11;101126.75;;;19.05;76.71
52625;BME280;38519;52.540;13.410;2022-08-02T00:25:36;101127.69;;;19.05;76.68
52625;BME280;38519;52.540;13.410;2022-08-02T00:28:02;101126.91;;;19.08;76.77
52625;BME280;38519;52.540;13.410;2022-08-02T00:30:27;101128.72;;;19.09;76.16
52625;BME280;38519;52.540;13.410;2022-08-02T00:32:52;101126.75;;;19.05;76.62
52625;BME280;38519;52.540;13.410;2022-08-02T00:35:18;101120.22;;;18.97;75.81
52625;BME280;38519;52.540;13.410;2022-08-02T00:37:43;101117.28;;;18.90;75.28
52625;BME280;38519;52.540;13.410;2022-08-02T00:40:09;101112.78;;;18.88;74.45
52625;BME280;38519;52.540;13.410;2022-08-02T00:42:35;101103.84;;;18.86;73.77
52625;BME280;38519;52.540;13.410;2022-08-02T00:45:00;101113.47;;;18.84;72.61
52625;BME280;38519;52.540;13.410;2022-08-02T00:47:25;101117.00;;;18.84;72.28
52625;BME280;38519;52.540;13.410;2022-08-02T00:49:51;101128.41;;;18.83;72.81
52625;BME280;38519;52.540;13.410;2022-08-02T00:52:16;101124.81;;;18.81;72.40
52625;BME280;38519;52.540;13.410;2022-08-02T00:54:42;101117.69;;;18.80;72.82
52625;BME280;38519;52.540;13.410;2022-08-02T00:57:07;101119.38;;;18.78;72.73
52625;BME280;38519;52.540;13.410;2022-08-02T00:59:32;101124.59;;;18.77;73.27
52625;BME280;38519;52.540;13.410;2022-08-02T01:01:58;101130.69;;;18.75;73.64
52625;BME280;38519;52.540;13.410;2022-08-02T01:04:24;101126.88;;;18.69;74.16
52625;BME280;38519;52.540;13.410;2022-08-02T01:06:50;101130.13;;;18.63;73.76
52625;BME280;38519;52.540;13.410;2022-08-02T01:09:15;101137.97;;;18.62;73.97
52625;BME280;38519;52.540;13.410;2022-08-02T01:11:41;101133.84;;;18.67;74.23
52625;BME280;38519;52.540;13.410;2022-08-02T01:14:11;101135.06;;;18.55;75.00
52625;BME280;38519;52.540;13.410;2022-08-02T01:16:51;101133.94;;;18.50;74.91
52625;BME280;38519;52.540;13.410;2022-08-02T01:21:48;101135.19;;;18.59;74.75
52625;BME280;38519;52.540;13.410;2022-08-02T01:24:20;101134.44;;;18.61;74.32
52625;BME280;38519;52.540;13.410;2022-08-02T01:29:30;101143.03;;;18.75;72.70
52625;BME280;38519;52.540;13.410;2022-08-02T01:32:02;101140.09;;;18.69;72.80
52625;BME280;38519;52.540;13.410;2022-08-02T01:34:32;101149.28;;;18.58;72.75
52625;BME280;38519;52.540;13.410;2022-08-02T01:37:10;101148.81;;;18.48;74.28
52625;BME280;38519;52.540;13.410;2022-08-02T01:39:39;101143.13;;;18.59;73.06
52625;BME280;38519;52.540;13.410;2022-08-02T01:42:06;101149.38;;;18.41;74.12
52625;BME280;38519;52.540;13.410;2022-08-02T01:44:33;101150.28;;;18.42;73.11
52625;BME280;38519;52.540;13.410;2022-08-02T01:47:01;101154.75;;;18.43;73.51
52625;BME280;38519;52.540;13.410;2022-08-02T01:49:28;101149.78;;;18.50;71.30
52625;BME280;38519;52.540;13.410;2022-08-02T01:51:55;101136.78;;;18.55;72.50
52625;BME280;38519;52.540;13.410;2022-08-02T01:54:40;101150.44;;;18.45;72.33
52625;BME280;38519;52.540;13.410;2022-08-02T01:57:08;101144.16;;;18.43;72.02
52625;BME280;38519;52.540;13.410;2022-08-02T01:59:34;101147.06;;;18.49;71.98
52625;BME280;38519;52.540;13.410;2022-08-02T02:02:00;101152.44;;;18.50;72.08
52625;BME280;38519;52.540;13.410;2022-08-02T02:04:27;101145.22;;;18.46;71.30
52625;BME280;38519;52.540;13.410;2022-08-02T02:06:55;101151.84;;;18.56;70.45
52625;BME280;38519;52.540;13.410;2022-08-02T02:09:21;101150.03;;;18.55;71.36
52625;BME280;38519;52.540;13.410;2022-08-02T02:11:50;101147.59;;;18.60;69.79
52625;BME280;38519;52.540;13.410;2022-08-02T02:14:17;101153.03;;;18.63;69.11
52625;BME280;38519;52.540;13.410;2022-08-02T02:16:44;101143.72;;;18.71;67.73
52625;BME280;38519;52.540;13.410;2022-08-02T02:19:12;101148.25;;;18.73;66.78
52625;BME280;38519;52.540;13.410;2022-08-02T02:21:40;101148.31;;;18.75;66.89
52625;BME280;38519;52.540;13.410;2022-08-02T02:24:06;101143.72;;;18.71;66.58
52625;BME280;38519;52.540;13.410;2022-08-02T02:26:32;101144.41;;;18.67;65.86
52625;BME280;38519;52.540;13.410;2022-08-02T02:29:00;101152.88;;;18.60;66.24
52625;BME280;38519;52.540;13.410;2022-08-02T02:31:26;101151.91;;;18.58;65.87
52625;BME280;38519;52.540;13.410;2022-08-02T02:34:36;101150.03;;;18.55;66.20
52625;BME280;38519;52.540;13.410;2022-08-02T02:36:45;101146.34;;;18.51;66.33
52625;BME280;38519;52.540;13.410;2022-08-02T02:39:12;101145.44;;;18.51;64.91
52625;BME280;38519;52.540;13.410;2022-08-02T02:41:39;101151.91;;;18.58;65.74
52625;BME280;38519;52.540;13.410;2022-08-02T02:44:05;101146.63;;;18.58;65.50
52625;BME280;38519;52.540;13.410;2022-08-02T02:46:33;101146.78;;;18.61;64.96
52625;BME280;38519;52.540;13.410;2022-08-02T02:48:59;101156.28;;;18.57;65.15
52625;BME280;38519;52.540;13.410;2022-08-02T02:51:25;101149.19;;;18.56;63.89
52625;BME280;38519;52.540;13.410;2022-08-02T02:53:51;101154.47;;;18.56;64.33
52625;BME280;38519;52.540;13.410;2022-08-02T02:56:18;101151.78;;;18.54;64.61
52625;BME280;38519;52.540;13.410;2022-08-02T02:58:44;101155.22;;;18.53;64.32
52625;BME280;38519;52.540;13.410;2022-08-02T03:01:10;101156.91;;;18.51;65.35
52625;BME280;38519;52.540;13.410;2022-08-02T03:03:55;101155.88;;;18.48;65.46
52625;BME280;38519;52.540;13.410;2022-08-02T03:06:21;101158.13;;;18.40;65.65
52625;BME280;38519;52.540;13.410;2022-08-02T03:08:47;101154.16;;;18.30;67.05
52625;BME280;38519;52.540;13.410;2022-08-02T03:11:12;101165.84;;;18.17;67.60
52625;BME280;38519;52.540;13.410;2022-08-02T03:13:38;101162.91;;;18.11;69.72
52625;BME280;38519;52.540;13.410;2022-08-02T03:16:04;101166.91;;;18.03;70.71
52625;BME280;38519;52.540;13.410;2022-08-02T03:18:36;101163.06;;;17.96;71.72
52625;BME280;38519;52.540;13.410;2022-08-02T03:21:03;101164.41;;;17.88;73.23
52625;BME280;38519;52.540;13.410;2022-08-02T03:23:29;101164.63;;;17.76;74.88
52625;BME280;38519;52.540;13.410;2022-08-02T03:25:55;101173.75;;;17.65;77.14
52625;BME280;38519;52.540;13.410;2022-08-02T03:28:20;101163.97;;;17.62;78.69
52625;BME280;38519;52.540;13.410;2022-08-02T03:30:46;101163.78;;;17.59;79.24
52625;BME280;38519;52.540;13.410;2022-08-02T03:33:11;101165.06;;;17.50;79.63
52625;BME280;38519;52.540;13.410;2022-08-02T03:35:37;101170.00;;;17.43;80.36
52625;BME280;38519;52.540;13.410;2022-08-02T03:38:05;101175.78;;;17.36;80.80
52625;BME280;38519;52.540;13.410;2022-08-02T03:40:31;101167.84;;;17.36;81.45
52625;BME280;38519;52.540;13.410;2022-08-02T03:42:58;101174.72;;;17.33;81.74
52625;BME280;38519;52.540;13.410;2022-08-02T03:45:24;101172.72;;;17.28;82.14
52625;BME280;38519;52.540;13.410;2022-08-02T03:47:49;101185.63;;;17.22;82.49
52625;BME280;38519;52.540;13.410;2022-08-02T03:50:16;101183.13;;;17.25;82.48
52625;BME280;38519;52.540;13.410;2022-08-02T03:52:42;101176.13;;;17.26;82.63
52625;BME280;38519;52.540;13.410;2022-08-02T03:55:09;101186.84;;;17.29;82.53
52625;BME280;38519;52.540;13.410;2022-08-02T03:57:36;101190.63;;;17.34;82.47
52625;BME280;38519;52.540;13.410;2022-08-02T04:00:02;101188.31;;;17.40;82.12
52625;BME280;38519;52.540;13.410;2022-08-02T04:02:28;101189.72;;;17.50;80.46
52625;BME280;38519;52.540;13.410;2022-08-02T04:04:53;101192.06;;;17.62;78.97
52625;BME280;38519;52.540;13.410;2022-08-02T04:07:19;101197.91;;;17.73;77.76
52625;BME280;38519;52.540;13.410;2022-08-02T04:09:44;101199.94;;;17.78;76.82
52625;BME280;38519;52.540;13.410;2022-08-02T04:14:38;101195.00;;;17.84;75.53
52625;BME280;38519;52.540;13.410;2022-08-02T04:17:05;101200.19;;;17.83;75.03
52625;BME280;38519;52.540;13.410;2022-08-02T04:19:33;101211.53;;;17.80;74.36
52625;BME280;38519;52.540;13.410;2022-08-02T04:22:03;101206.25;;;17.80;74.62
52625;BME280;38519;52.540;13.410;2022-08-02T04:24:39;101210.53;;;17.78;74.18
52625;BME280;38519;52.540;13.410;2022-08-02T04:27:06;101202.47;;;17.75;72.60
52625;BME280;38519;52.540;13.410;2022-08-02T04:29:32;101209.22;;;17.70;73.31
52625;BME280;38519;52.540;13.410;2022-08-02T04:31:59;101211.69;;;17.67;73.71
52625;BME280;38519;52.540;13.410;2022-08-02T04:34:25;101209.75;;;17.63;73.07
52625;BME280;38519;52.540;13.410;2022-08-02T04:36:50;101210.56;;;17.62;73.37
52625;BME280;38519;52.540;13.410;2022-08-02T04:39:17;101213.28;;;17.63;74.15
52625;BME280;38519;52.540;13.410;2022-08-02T04:41:43;101220.06;;;17.58;75.41
52625;BME280;38519;52.540;13.410;2022-08-02T04:44:09;101219.56;;;17.49;76.63
52625;BME280;38519;52.540;13.410;2022-08-02T04:46:35;101215.88;;;17.45;77.30
52625;BME280;38519;52.540;13.410;2022-08-02T04:49:01;101215.28;;;17.51;77.31
52625;BME280;38519;52.540;13.410;2022-08-02T04:51:26;101218.75;;;17.50;76.92
52625;BME280;38519;52.540;13.410;2022-08-02T04:53:52;101224.69;;;17.46;77.38
52625;BME280;38519;52.540;13.410;2022-08-02T04:56:17;101215.78;;;17.44;77.98
52625;BME280;38519;52.540;13.410;2022-08-02T04:58:42;101212.50;;;17.48;77.94
52625;BME280;38519;52.540;13.410;2022-08-02T05:01:08;101220.25;;;17.45;78.55
52625;BME280;38519;52.540;13.410;2022-08-02T05:03:33;101222.47;;;17.37;79.20
52625;BME280;38519;52.540;13.410;2022-08-02T05:05:59;101219.50;;;17.31;79.81
52625;BME280;38519;52.540;13.410;2022-08-02T05:08:25;101226.91;;;17.38;79.54
52625;BME280;38519;52.540;13.410;2022-08-02T05:10:50;101230.47;;;17.39;80.01
52625;BME280;38519;52.540;13.410;2022-08-02T05:13:15;101231.47;;;17.41;80.24
52625;BME280;38519;52.540;13.410;2022-08-02T05:15:41;101224.03;;;17.50;79.80
52625;BME280;38519;52.540;13.410;2022-08-02T05:18:06;101230.97;;;17.48;80.04
52625;BME280;38519;52.540;13.410;2022-08-02T05:20:32;101232.69;;;17.47;80.18
52625;BME280;38519;52.540;13.410;2022-08-02T05:22:57;101230.91;;;17.46;79.84
52625;BME280;38519;52.540;13.410;2022-08-02T05:25:22;101234.34;;;17.45;79.86
52625;BME280;38519;52.540;13.410;2022-08-02T05:27:48;101227.50;;;17.33;79.60
52625;BME280;38519;52.540;13.410;2022-08-02T05:30:13;101234.19;;;17.42;78.44
52625;BME280;38519;52.540;13.410;2022-08-02T05:32:43;101231.78;;;17.47;79.59
52625;BME280;38519;52.540;13.410;2022-08-02T05:35:08;101234.84;;;17.55;78.70
52625;BME280;38519;52.540;13.410;2022-08-02T05:37:34;101235.19;;;17.61;77.06
52625;BME280;38519;52.540;13.410;2022-08-02T05:39:59;101244.56;;;17.56;76.81
52625;BME280;38519;52.540;13.410;2022-08-02T05:42:24;101254.31;;;17.57;74.65
52625;BME280;38519;52.540;13.410;2022-08-02T05:44:50;101245.88;;;17.64;76.05
52625;BME280;38519;52.540;13.410;2022-08-02T05:47:15;101252.31;;;17.69;75.11
52625;BME280;38519;52.540;13.410;2022-08-02T05:49:41;101247.22;;;17.72;73.58
52625;BME280;38519;52.540;13.410;2022-08-02T05:52:13;101258.66;;;17.73;74.16
52625;BME280;38519;52.540;13.410;2022-08-02T06:00:10;101267.06;;;17.98;69.42
52625;BME280;38519;52.540;13.410;2022-08-02T06:05:03;101266.94;;;18.13;68.00
52625;BME280;38519;52.540;13.410;2022-08-02T06:07:29;101267.97;;;18.15;67.06
52625;BME280;38519;52.540;13.410;2022-08-02T06:09:59;101267.59;;;18.26;67.84
52625;BME280;38519;52.540;13.410;2022-08-02T06:12:26;101265.91;;;18.28;68.73
52625;BME280;38519;52.540;13.410;2022-08-02T06:14:53;101271.59;;;18.35;64.88
52625;BME280;38519;52.540;13.410;2022-08-02T06:17:20;101271.91;;;18.42;65.31
52625;BME280;38519;52.540;13.410;2022-08-02T06:19:45;101267.91;;;18.50;63.94
52625;BME280;38519;52.540;13.410;2022-08-02T06:22:11;101264.88;;;18.60;64.03
52625;BME280;38519;52.540;13.410;2022-08-02T06:24:43;101269.56;;;18.66;63.91
52625;BME280;38519;52.540;13.410;2022-08-02T06:27:12;101270.91;;;18.75;63.70
52625;BME280;38519;52.540;13.410;2022-08-02T06:29:38;101269.81;;;18.88;62.89
52625;BME280;38519;52.540;13.410;2022-08-02T06:32:04;101271.50;;;19.06;60.52
52625;BME280;38519;52.540;13.410;2022-08-02T06:34:31;101271.81;;;19.12;60.91
52625;BME280;38519;52.540;13.410;2022-08-02T06:37:08;101271.16;;;19.18;61.05
52625;BME280;38519;52.540;13.410;2022-08-02T06:39:47;101263.75;;;19.28;60.85
52625;BME280;38519;52.540;13.410;2022-08-02T06:42:15;101267.28;;;19.29;61.15
52625;BME280;38519;52.540;13.410;2022-08-02T06:44:42;101263.59;;;19.45;59.78
52625;BME280;38519;52.540;13.410;2022-08-02T06:47:07;101259.47;;;19.52;60.11
52625;BME280;38519;52.540;13.410;2022-08-02T06:49:33;101261.22;;;19.51;58.95
52625;BME280;38519;52.540;13.410;2022-08-02T06:51:58;101255.72;;;19.46;60.04
52625;BME280;38519;52.540;13.410;2022-08-02T06:54:23;101259.06;;;19.62;59.72
52625;BME280;38519;52.540;13.410;2022-08-02T06:56:49;101256.63;;;19.67;58.14
52625;BME280;38519;52.540;13.410;2022-08-02T06:59:14;101256.84;;;19.71;58.71
52625;BME280;38519;52.540;13.410;2022-08-02T07:01:39;101250.50;;;19.87;57.93
52625;BME280;38519;52.540;13.410;2022-08-02T07:04:04;101246.25;;;19.91;58.12
52625;BME280;38519;52.540;13.410;2022-08-02T07:06:30;101250.94;;;19.98;58.00
52625;BME280;38519;52.540;13.410;2022-08-02T07:08:55;101251.28;;;20.06;58.91
52625;BME280;38519;52.540;13.410;2022-08-02T07:11:21;101244.16;;;20.05;57.23
52625;BME280;38519;52.540;13.410;2022-08-02T07:13:46;101250.72;;;20.13;57.28
52625;BME280;38519;52.540;13.410;2022-08-02T07:16:11;101235.72;;;20.13;56.61
52625;BME280;38519;52.540;13.410;2022-08-02T07:18:36;101244.56;;;20.14;56.88
52625;BME280;38519;52.540;13.410;2022-08-02T07:21:02;101254.94;;;19.88;58.01
52625;BME280;38519;52.540;13.410;2022-08-02T07:23:30;101249.28;;;20.00;57.53
52625;BME280;38519;52.540;13.410;2022-08-02T07:25:55;101243.06;;;19.99;59.40
52625;BME280;38519;52.540;13.410;2022-08-02T07:28:20;101250.88;;;20.17;57.25
52625;BME280;38519;52.540;13.410;2022-08-02T07:30:46;101246.19;;;20.31;56.64
52625;BME280;38519;52.540;13.410;2022-08-02T07:33:12;101246.56;;;20.41;57.10
52625;BME280;38519;52.540;13.410;2022-08-02T07:35:37;101241.53;;;20.47;55.96
52625;BME280;38519;52.540;13.410;2022-08-02T07:38:02;101246.22;;;20.54;55.58
52625;BME280;38519;52.540;13.410;2022-08-02T07:40:28;101249.34;;;20.65;54.71
52625;BME280;38519;52.540;13.410;2022-08-02T07:42:54;101246.09;;;20.72;54.99
52625;BME280;38519;52.540;13.410;2022-08-02T07:45:19;101248.94;;;20.77;54.00
52625;BME280;38519;52.540;13.410;2022-08-02T07:47:45;101237.47;;;20.78;53.78
52625;BME280;38519;52.540;13.410;2022-08-02T07:50:11;101240.44;;;20.85;53.40
52625;BME280;38519;52.540;13.410;2022-08-02T07:52:37;101235.19;;;20.87;52.54
52625;BME280;38519;52.540;13.410;2022-08-02T07:55:03;101242.41;;;20.91;52.37
52625;BME280;38519;52.540;13.410;2022-08-02T07:57:28;101242.41;;;20.91;52.44
52625;BME280;38519;52.540;13.410;2022-08-02T07:59:54;101238.31;;;20.99;52.28
52625;BME280;38519;52.540;13.410;2022-08-02T08:02:20;101235.88;;;21.05;51.76
52625;BME280;38519;52.540;13.410;2022-08-02T08:04:45;101243.72;;;21.02;51.14
52625;BME280;38519;52.540;13.410;2022-08-02T08:07:10;101244.94;;;21.10;50.50
52625;BME280;38519;52.540;13.410;2022-08-02T08:09:39;101247.72;;;21.14;50.47
52625;BME280;38519;52.540;13.410;2022-08-02T08:12:06;101247.94;;;21.20;50.60
52625;BME280;38519;52.540;13.410;2022-08-02T08:14:31;101240.34;;;21.29;51.04
52625;BME280;38519;52.540;13.410;2022-08-02T08:16:56;101233.44;;;21.34;50.48
52625;BME280;38519;52.540;13.410;2022-08-02T08:19:22;101227.34;;;21.37;50.64
52625;BME280;38519;52.540;13.410;2022-08-02T08:21:47;101230.19;;;21.41;51.41
52625;BME280;38519;52.540;13.410;2022-08-02T08:24:12;101233.25;;;21.52;50.94
52625;BME280;38519;52.540;13.410;2022-08-02T08:26:37;101235.16;;;21.56;50.95
52625;BME280;38519;52.540;13.410;2022-08-02T08:29:04;101223.78;;;21.60;50.42
52625;BME280;38519;52.540;13.410;2022-08-02T08:31:30;101226.00;;;21.72;50.39
52625;BME280;38519;52.540;13.410;2022-08-02T08:33:55;101219.16;;;21.79;49.63
52625;BME280;38519;52.540;13.410;2022-08-02T08:36:21;101218.34;;;21.81;49.94
52625;BME280;38519;52.540;13.410;2022-08-02T08:38:46;101214.88;;;21.84;50.91
52625;BME280;38519;52.540;13.410;2022-08-02T08:41:14;101220.47;;;21.92;49.82
52625;BME280;38519;52.540;13.410;2022-08-02T08:43:39;101227.97;;;22.04;49.67
52625;BME280;38519;52.540;13.410;2022-08-02T08:46:05;101220.19;;;22.10;49.21
52625;BME280;38519;52.540;13.410;2022-08-02T08:48:30;101221.41;;;22.19;49.54
52625;BME280;38519;52.540;13.410;2022-08-02T08:51:00;101224.56;;;22.33;48.14
52625;BME280;38519;52.540;13.410;2022-08-02T08:53:28;101221.84;;;22.32;48.33
52625;BME280;38519;52.540;13.410;2022-08-02T08:55:55;101222.91;;;22.37;48.39
52625;BME280;38519;52.540;13.410;2022-08-02T08:58:22;101237.91;;;22.35;47.66
52625;BME280;38519;52.540;13.410;2022-08-02T09:00:47;101228.34;;;22.40;47.84
52625;BME280;38519;52.540;13.410;2022-08-02T09:03:12;101227.38;;;22.38;47.61
52625;BME280;38519;52.540;13.410;2022-08-02T09:05:38;101222.84;;;22.35;48.04
52625;BME280;38519;52.540;13.410;2022-08-02T09:08:04;101224.16;;;22.48;48.17
52625;BME280;38519;52.540;13.410;2022-08-02T09:15:43;101223.66;;;22.60;47.64
52625;BME280;38519;52.540;13.410;2022-08-02T09:18:10;101219.47;;;22.68;47.14
52625;BME280;38519;52.540;13.410;2022-08-02T09:20:55;101224.84;;;22.70;47.20
52625;BME280;38519;52.540;13.410;2022-08-02T09:23:21;101208.09;;;22.74;48.45
52625;BME280;38519;52.540;13.410;2022-08-02T09:25:59;101217.75;;;22.70;47.41
52625;BME280;38519;52.540;13.410;2022-08-02T09:28:26;101212.63;;;22.77;47.61
52625;BME280;38519;52.540;13.410;2022-08-02T09:30:51;101199.72;;;22.90;46.95
52625;BME280;38519;52.540;13.410;2022-08-02T09:33:23;101206.03;;;22.92;47.53
52625;BME280;38519;52.540;13.410;2022-08-02T09:35:49;101208.41;;;23.12;47.14
52625;BME280;38519;52.540;13.410;2022-08-02T09:38:22;101197.09;;;23.21;46.56
52625;BME280;38519;52.540;13.410;2022-08-02T09:40:48;101203.09;;;23.44;46.42
52625;BME280;38519;52.540;13.410;2022-08-02T09:43:13;101204.13;;;23.49;45.35
52625;BME280;38519;52.540;13.410;2022-08-02T09:45:38;101205.13;;;23.53;46.05
52625;BME280;38519;52.540;13.410;2022-08-02T09:48:07;101198.97;;;23.55;44.91
52625;BME280;38519;52.540;13.410;2022-08-02T09:50:36;101194.56;;;23.57;44.59
52625;BME280;38519;52.540;13.410;2022-08-02T09:53:01;101198.59;;;23.75;45.49
52625;BME280;38519;52.540;13.410;2022-08-02T09:55:27;101189.28;;;23.91;44.55
52625;BME280;38519;52.540;13.410;2022-08-02T09:57:52;101185.91;;;23.98;44.37
52625;BME280;38519;52.540;13.410;2022-08-02T10:00:18;101184.38;;;24.08;44.21
52625;BME280;38519;52.540;13.410;2022-08-02T10:05:28;101195.59;;;23.94;44.41
52625;BME280;38519;52.540;13.410;2022-08-02T10:07:54;101188.75;;;23.72;45.34
52625;BME280;38519;52.540;13.410;2022-08-02T10:10:20;101201.78;;;23.60;44.52
52625;BME280;38519;52.540;13.410;2022-08-02T10:12:45;101200.84;;;23.59;44.45
52625;BME280;38519;52.540;13.410;2022-08-02T10:15:10;101201.91;;;23.98;43.97
52625;BME280;38519;52.540;13.410;2022-08-02T10:17:35;101209.56;;;24.19;43.61
52625;BME280;38519;52.540;13.410;2022-08-02T10:20:01;101201.19;;;24.40;43.43
52625;BME280;38519;52.540;13.410;2022-08-02T10:22:27;101207.56;;;24.47;43.12
52625;BME280;38519;52.540;13.410;2022-08-02T10:24:52;101205.88;;;24.50;41.91
52625;BME280;38519;52.540;13.410;2022-08-02T10:27:19;101192.22;;;24.38;43.20
52625;BME280;38519;52.540;13.410;2022-08-02T10:29:45;101195.16;;;24.12;43.51
52625;BME280;38519;52.540;13.410;2022-08-02T10:32:25;101200.22;;;23.68;45.00
52625;BME280;38519;52.540;13.410;2022-08-02T10:34:57;101204.34;;;23.57;45.08
52625;BME280;38519;52.540;13.410;2022-08-02T10:37:27;101205.78;;;24.11;44.23
52625;BME280;38519;52.540;13.410;2022-08-02T10:39:55;101198.94;;;24.57;42.68
52625;BME280;38519;52.540;13.410;2022-08-02T10:45:08;101202.63;;;25.03;40.89
52625;BME280;38519;52.540;13.410;2022-08-02T10:47:34;101203.81;;;25.18;41.04
52625;BME280;38519;52.540;13.410;2022-08-02T10:50:00;101202.59;;;25.02;41.15
52625;BME280;38519;52.540;13.410;2022-08-02T10:52:26;101185.81;;;25.07;41.82
52625;BME280;38519;52.540;13.410;2022-08-02T10:59:51;101179.97;;;25.27;39.96
52625;BME280;38519;52.540;13.410;2022-08-02T11:02:38;101162.38;;;25.37;41.77
52625;BME280;38519;52.540;13.410;2022-08-02T11:09:58;101160.84;;;24.64;41.15
52625;BME280;38519;52.540;13.410;2022-08-02T11:15:24;101157.34;;;25.09;40.46
52625;BME280;38519;52.540;13.410;2022-08-02T11:17:56;101151.44;;;25.26;40.76
52625;BME280;38519;52.540;13.410;2022-08-02T11:20:23;101148.19;;;25.41;40.05
52625;BME280;38519;52.540;13.410;2022-08-02T11:22:50;101149.44;;;25.61;39.32
52625;BME280;38519;52.540;13.410;2022-08-02T11:27:57;101145.78;;;25.55;39.62
52625;BME280;38519;52.540;13.410;2022-08-02T11:30:22;101135.47;;;25.76;39.03
52625;BME280;38519;52.540;13.410;2022-08-02T11:32:48;101138.63;;;25.55;39.95
52625;BME280;38519;52.540;13.410;2022-08-02T11:35:13;101142.44;;;25.67;38.55
52625;BME280;38519;52.540;13.410;2022-08-02T11:37:39;101145.22;;;25.74;37.75
52625;BME280;38519;52.540;13.410;2022-08-02T11:40:07;101153.50;;;25.88;37.11
52625;BME280;38519;52.540;13.410;2022-08-02T11:42:36;101151.75;;;25.92;36.95
52625;BME280;38519;52.540;13.410;2022-08-02T11:45:06;101150.34;;;26.12;36.31
52625;BME280;38519;52.540;13.410;2022-08-02T11:47:32;101146.69;;;26.06;36.70
52625;BME280;38519;52.540;13.410;2022-08-02T11:50:07;101142.28;;;26.09;37.50
52625;BME280;38519;52.540;13.410;2022-08-02T11:52:32;101147.97;;;26.31;36.44
52625;BME280;38519;52.540;13.410;2022-08-02T11:54:58;101138.91;;;26.23;36.10
52625;BME280;38519;52.540;13.410;2022-08-02T11:57:24;101141.78;;;26.35;36.65
52625;BME280;38519;52.540;13.410;2022-08-02T11:59:50;101136.53;;;26.41;37.08
52625;BME280;38519;52.540;13.410;2022-08-02T12:02:17;101141.16;;;26.54;34.70
52625;BME280;38519;52.540;13.410;2022-08-02T12:04:48;101131.56;;;26.69;34.77
52625;BME280;38519;52.540;13.410;2022-08-02T12:07:15;101130.69;;;26.70;35.43
52625;BME280;38519;52.540;13.410;2022-08-02T12:09:40;101141.63;;;26.88;35.04
52625;BME280;38519;52.540;13.410;2022-08-02T12:12:05;101130.13;;;26.96;33.76
52625;BME280;38519;52.540;13.410;2022-08-02T12:14:31;101131.16;;;27.07;33.85
52625;BME280;38519;52.540;13.410;2022-08-02T12:16:56;101111.59;;;27.16;34.69
52625;BME280;38519;52.540;13.410;2022-08-02T12:19:41;101119.56;;;26.41;35.35
52625;BME280;38519;52.540;13.410;2022-08-02T12:24:45;101106.19;;;27.10;33.99
52625;BME280;38519;52.540;13.410;2022-08-02T12:27:26;101108.84;;;27.08;34.77
52625;BME280;38519;52.540;13.410;2022-08-02T12:29:56;101110.72;;;27.17;34.76
52625;BME280;38519;52.540;13.410;2022-08-02T12:32:23;101117.63;;;26.96;34.82
52625;BME280;38519;52.540;13.410;2022-08-02T12:34:58;101104.41;;;27.12;34.51
52625;BME280;38519;52.540;13.410;2022-08-02T12:37:24;101106.22;;;27.11;35.18
52625;BME280;38519;52.540;13.410;2022-08-02T12:39:50;101104.75;;;27.42;34.38
52625;BME280;38519;52.540;13.410;2022-08-02T12:42:16;101111.19;;;27.61;33.88
52625;BME280;38519;52.540;13.410;2022-08-02T12:44:49;101106.34;;;28.25;32.74
52625;BME280;38519;52.540;13.410;2022-08-02T12:47:15;101103.13;;;28.91;32.20
52625;BME280;38519;52.540;13.410;2022-08-02T12:49:40;101111.34;;;29.63;31.22
52625;BME280;38519;52.540;13.410;2022-08-02T12:52:19;101102.44;;;29.87;29.75
52625;BME280;38519;52.540;13.410;2022-08-02T12:54:44;101100.66;;;29.89;31.20
52625;BME280;38519;52.540;13.410;2022-08-02T12:57:10;101090.69;;;30.33;29.27
52625;BME280;38519;52.540;13.410;2022-08-02T12:59:36;101096.81;;;30.81;28.29
52625;BME280;38519;52.540;13.410;2022-08-02T13:02:06;101085.81;;;31.25;27.68
52625;BME280;38519;52.540;13.410;2022-08-02T13:04:32;101088.34;;;31.54;27.46
52625;BME280;38519;52.540;13.410;2022-08-02T13:06:57;101081.28;;;31.30;27.87
52625;BME280;38519;52.540;13.410;2022-08-02T13:09:22;101079.38;;;31.47;27.66
52625;BME280;38519;52.540;13.410;2022-08-02T13:11:48;101083.97;;;31.34;28.04
52625;BME280;38519;52.540;13.410;2022-08-02T13:14:13;101083.09;;;31.32;28.49
52625;BME280;38519;52.540;13.410;2022-08-02T13:16:39;101086.69;;;31.28;27.27
52625;BME280;38519;52.540;13.410;2022-08-02T13:19:04;101082.03;;;31.50;27.47
52625;BME280;38519;52.540;13.410;2022-08-02T13:21:29;101092.94;;;31.35;27.45
52625;BME280;38519;52.540;13.410;2022-08-02T13:23:54;101083.34;;;30.80;27.72